Kezdőlap
METAR-TAF:

METAR-TAF

Repülőterek :

Flin Flon, Manitoba, Kanada

földrajzi szélesség: 54-41N, földrajzi hosszúság: 101-41W, magasság: 304 m

Jelenlegi meteorológiai megfigyelések

A jelentés 3 órával és 16 perccel ezelõtt készült, 23:00 UTC
Kelet-délkeleti szél 6 kt, keleti és dél-délkeleti között változik
Hőmérséklet 6°C
Páratartalom 56%
Légköri nyomás 1013 hPa
Látótávolság: 24.1 km
Kevés felhő 1000 lábon
Szakadozott felhőzet 14000 lábon
Borult 26000 lábon

METAR: CYFO 122300Z 12006KT 090V150 15SM FEW010 BKN140 OVC260 06/M02 A2992 RMK SC1AC5CS2 LAST OBS/NEXT 131100UTC SLP149

Idő: 21:16 (02:16 UTC)


TAF: hiányzik

Meteorológiai megfigyelések és előrejelzések több, mint 4000 repülőtéren (METAR és TAF jelentéseket).

A térképen piros és sárga pontok jelzik az elérhető meteorológiai állomásokat.

Mozgassa az egeret a pont fölött, hogy megjelenjen az állomás neve.

Azután kattintson az időjárási megfigyelések és előrejelzések megtekintéséhez.

A térkép megváltoztatása: kattintson a fekete keresztel jelölt zöld gombra ráközelítéshez, a vonallal jelölt zöld gombra távolításhoz, vagy a zöld nyilakra a szomszédos térképek eléréséhez.


METAR-TAF: